Terminal Aerodrome Forecast
Issued by NWS

Home | Current Version | Previous Version | Graphics & Text | Print | Product List | Glossary On
Versions: 1 2 3 4 5 6 7 8 9 10 11 12 13 14 15 16 17 18 19
272
FTUS43 KTOP 171137
TAFFOE
TAF
KFOE 171137Z 1712/1812 29007KT P6SM OVC007
     FM171400 29007KT P6SM OVC018
     FM171600 29006KT P6SM SCT035=

USA.gov is the U.S. government's official web portal to all federal, state and local government web resources and services.